sensor_id;sensor_type;location;lat;lon;timestamp;temperature;humidity
20700;DHT22;10511;51.232;9.420;2023-07-29T00:02:13;19.00;99.90
20700;DHT22;10511;51.232;9.420;2023-07-29T00:04:40;18.90;99.90
20700;DHT22;10511;51.232;9.420;2023-07-29T00:07:06;18.90;99.90
20700;DHT22;10511;51.232;9.420;2023-07-29T00:09:33;18.90;99.90
20700;DHT22;10511;51.232;9.420;2023-07-29T00:12:00;18.80;99.90
20700;DHT22;10511;51.232;9.420;2023-07-29T00:14:29;18.80;99.90
20700;DHT22;10511;51.232;9.420;2023-07-29T00:16:56;18.90;99.90
20700;DHT22;10511;51.232;9.420;2023-07-29T00:19:22;18.90;99.90
20700;DHT22;10511;51.232;9.420;2023-07-29T00:21:50;18.90;99.90
20700;DHT22;10511;51.232;9.420;2023-07-29T00:24:17;18.90;99.90
20700;DHT22;10511;51.232;9.420;2023-07-29T00:26:43;18.80;99.90
20700;DHT22;10511;51.232;9.420;2023-07-29T00:29:10;18.80;99.90
20700;DHT22;10511;51.232;9.420;2023-07-29T00:31:39;18.80;99.90
20700;DHT22;10511;51.232;9.420;2023-07-29T00:34:06;18.70;99.90
20700;DHT22;10511;51.232;9.420;2023-07-29T00:36:33;18.70;99.90
20700;DHT22;10511;51.232;9.420;2023-07-29T00:38:59;18.70;99.90
20700;DHT22;10511;51.232;9.420;2023-07-29T00:41:26;18.70;99.90
20700;DHT22;10511;51.232;9.420;2023-07-29T00:43:53;18.70;99.90
20700;DHT22;10511;51.232;9.420;2023-07-29T00:46:21;18.70;99.90
20700;DHT22;10511;51.232;9.420;2023-07-29T00:48:50;18.70;99.90
20700;DHT22;10511;51.232;9.420;2023-07-29T00:51:17;18.70;99.90
20700;DHT22;10511;51.232;9.420;2023-07-29T00:53:44;18.60;99.90
20700;DHT22;10511;51.232;9.420;2023-07-29T00:56:11;18.60;99.90
20700;DHT22;10511;51.232;9.420;2023-07-29T00:58:38;18.60;99.90
20700;DHT22;10511;51.232;9.420;2023-07-29T01:01:05;18.60;99.90
20700;DHT22;10511;51.232;9.420;2023-07-29T01:03:32;18.60;99.90
20700;DHT22;10511;51.232;9.420;2023-07-29T01:06:08;18.60;99.90
20700;DHT22;10511;51.232;9.420;2023-07-29T01:08:42;18.60;99.90
20700;DHT22;10511;51.232;9.420;2023-07-29T01:11:27;18.60;99.90
20700;DHT22;10511;51.232;9.420;2023-07-29T01:13:58;18.60;99.90
20700;DHT22;10511;51.232;9.420;2023-07-29T01:16:31;18.60;99.90
20700;DHT22;10511;51.232;9.420;2023-07-29T01:19:05;18.70;99.90
20700;DHT22;10511;51.232;9.420;2023-07-29T01:21:35;18.70;99.90
20700;DHT22;10511;51.232;9.420;2023-07-29T01:24:04;18.60;99.90
20700;DHT22;10511;51.232;9.420;2023-07-29T01:26:31;18.60;99.90
20700;DHT22;10511;51.232;9.420;2023-07-29T01:28:58;18.60;99.90
20700;DHT22;10511;51.232;9.420;2023-07-29T01:31:30;18.70;99.90
20700;DHT22;10511;51.232;9.420;2023-07-29T01:34:03;18.70;99.90
20700;DHT22;10511;51.232;9.420;2023-07-29T01:36:32;18.80;99.90
20700;DHT22;10511;51.232;9.420;2023-07-29T01:39:01;18.70;99.90
20700;DHT22;10511;51.232;9.420;2023-07-29T01:41:31;18.70;99.90
20700;DHT22;10511;51.232;9.420;2023-07-29T01:43:58;18.70;99.90
20700;DHT22;10511;51.232;9.420;2023-07-29T01:46:25;18.60;99.90
20700;DHT22;10511;51.232;9.420;2023-07-29T01:48:52;18.60;99.90
20700;DHT22;10511;51.232;9.420;2023-07-29T01:51:19;18.60;99.90
20700;DHT22;10511;51.232;9.420;2023-07-29T01:53:47;18.60;99.90
20700;DHT22;10511;51.232;9.420;2023-07-29T01:56:14;18.50;99.90
20700;DHT22;10511;51.232;9.420;2023-07-29T01:58:42;18.50;99.90
20700;DHT22;10511;51.232;9.420;2023-07-29T02:01:09;18.50;99.90
20700;DHT22;10511;51.232;9.420;2023-07-29T02:03:36;18.50;99.90
20700;DHT22;10511;51.232;9.420;2023-07-29T02:06:03;18.50;99.90
20700;DHT22;10511;51.232;9.420;2023-07-29T02:08:30;18.50;99.90
20700;DHT22;10511;51.232;9.420;2023-07-29T02:10:57;18.50;99.90
20700;DHT22;10511;51.232;9.420;2023-07-29T02:13:24;18.40;99.90
20700;DHT22;10511;51.232;9.420;2023-07-29T02:15:52;18.40;99.90
20700;DHT22;10511;51.232;9.420;2023-07-29T02:18:19;18.40;99.90
20700;DHT22;10511;51.232;9.420;2023-07-29T02:20:46;18.40;99.90
20700;DHT22;10511;51.232;9.420;2023-07-29T02:23:15;18.50;99.90
20700;DHT22;10511;51.232;9.420;2023-07-29T02:25:42;18.40;99.90
20700;DHT22;10511;51.232;9.420;2023-07-29T02:28:09;18.40;99.90
20700;DHT22;10511;51.232;9.420;2023-07-29T02:30:36;18.40;99.90
20700;DHT22;10511;51.232;9.420;2023-07-29T02:33:05;18.40;99.90
20700;DHT22;10511;51.232;9.420;2023-07-29T02:35:32;18.40;99.90
20700;DHT22;10511;51.232;9.420;2023-07-29T02:37:59;18.40;99.90
20700;DHT22;10511;51.232;9.420;2023-07-29T02:40:26;18.50;99.90
20700;DHT22;10511;51.232;9.420;2023-07-29T02:42:55;18.50;99.90
20700;DHT22;10511;51.232;9.420;2023-07-29T02:45:21;18.40;99.90
20700;DHT22;10511;51.232;9.420;2023-07-29T02:47:48;18.40;99.90
20700;DHT22;10511;51.232;9.420;2023-07-29T02:50:17;18.40;99.90
20700;DHT22;10511;51.232;9.420;2023-07-29T02:52:44;18.40;99.90
20700;DHT22;10511;51.232;9.420;2023-07-29T02:55:11;18.40;99.90
20700;DHT22;10511;51.232;9.420;2023-07-29T02:57:38;18.40;99.90
20700;DHT22;10511;51.232;9.420;2023-07-29T03:00:06;18.40;99.90
20700;DHT22;10511;51.232;9.420;2023-07-29T03:02:33;18.40;99.90
20700;DHT22;10511;51.232;9.420;2023-07-29T03:05:00;18.40;99.90
20700;DHT22;10511;51.232;9.420;2023-07-29T03:07:29;18.40;99.90
20700;DHT22;10511;51.232;9.420;2023-07-29T03:09:56;18.50;99.90
20700;DHT22;10511;51.232;9.420;2023-07-29T03:12:23;18.40;99.90
20700;DHT22;10511;51.232;9.420;2023-07-29T03:14:50;18.50;99.90
20700;DHT22;10511;51.232;9.420;2023-07-29T03:17:17;18.50;99.90
20700;DHT22;10511;51.232;9.420;2023-07-29T03:19:44;18.50;99.90
20700;DHT22;10511;51.232;9.420;2023-07-29T03:22:11;18.60;99.90
20700;DHT22;10511;51.232;9.420;2023-07-29T03:24:39;18.60;99.90
20700;DHT22;10511;51.232;9.420;2023-07-29T03:27:07;18.60;99.90
20700;DHT22;10511;51.232;9.420;2023-07-29T03:29:35;18.60;99.90
20700;DHT22;10511;51.232;9.420;2023-07-29T03:32:02;18.70;99.90
20700;DHT22;10511;51.232;9.420;2023-07-29T03:34:29;18.70;99.90
20700;DHT22;10511;51.232;9.420;2023-07-29T03:36:59;18.70;99.90
20700;DHT22;10511;51.232;9.420;2023-07-29T03:39:26;18.70;99.90
20700;DHT22;10511;51.232;9.420;2023-07-29T03:41:54;18.70;99.90
20700;DHT22;10511;51.232;9.420;2023-07-29T03:44:21;18.70;99.90
20700;DHT22;10511;51.232;9.420;2023-07-29T03:46:48;18.70;99.90
20700;DHT22;10511;51.232;9.420;2023-07-29T03:49:15;18.70;99.90
20700;DHT22;10511;51.232;9.420;2023-07-29T03:51:42;18.70;99.90
20700;DHT22;10511;51.232;9.420;2023-07-29T03:54:10;18.70;99.90
20700;DHT22;10511;51.232;9.420;2023-07-29T03:56:37;18.60;99.90
20700;DHT22;10511;51.232;9.420;2023-07-29T03:59:05;18.60;99.90
20700;DHT22;10511;51.232;9.420;2023-07-29T04:01:32;18.60;99.90
20700;DHT22;10511;51.232;9.420;2023-07-29T04:03:59;18.60;99.90
20700;DHT22;10511;51.232;9.420;2023-07-29T04:06:26;18.50;99.90
20700;DHT22;10511;51.232;9.420;2023-07-29T04:08:53;18.50;99.90
20700;DHT22;10511;51.232;9.420;2023-07-29T04:11:20;18.50;99.90
20700;DHT22;10511;51.232;9.420;2023-07-29T04:13:47;18.50;99.90
20700;DHT22;10511;51.232;9.420;2023-07-29T04:16:16;18.50;99.90
20700;DHT22;10511;51.232;9.420;2023-07-29T04:18:43;18.50;99.90
20700;DHT22;10511;51.232;9.420;2023-07-29T04:21:10;18.50;99.90
20700;DHT22;10511;51.232;9.420;2023-07-29T04:23:38;18.50;99.90
20700;DHT22;10511;51.232;9.420;2023-07-29T04:26:05;18.40;99.90
20700;DHT22;10511;51.232;9.420;2023-07-29T04:28:32;18.50;99.90
20700;DHT22;10511;51.232;9.420;2023-07-29T04:30:59;18.50;99.90
20700;DHT22;10511;51.232;9.420;2023-07-29T04:33:29;18.50;99.90
20700;DHT22;10511;51.232;9.420;2023-07-29T04:35:56;18.50;99.90
20700;DHT22;10511;51.232;9.420;2023-07-29T04:38:30;18.50;99.90
20700;DHT22;10511;51.232;9.420;2023-07-29T04:40:57;18.50;99.90
20700;DHT22;10511;51.232;9.420;2023-07-29T04:43:27;18.50;99.90
20700;DHT22;10511;51.232;9.420;2023-07-29T04:45:54;18.50;99.90
20700;DHT22;10511;51.232;9.420;2023-07-29T04:48:21;18.50;99.90
20700;DHT22;10511;51.232;9.420;2023-07-29T04:50:49;18.40;99.90
20700;DHT22;10511;51.232;9.420;2023-07-29T04:53:16;18.50;99.90
20700;DHT22;10511;51.232;9.420;2023-07-29T04:55:43;18.50;99.90
20700;DHT22;10511;51.232;9.420;2023-07-29T04:58:10;18.50;99.90
20700;DHT22;10511;51.232;9.420;2023-07-29T05:00:37;18.50;99.90
20700;DHT22;10511;51.232;9.420;2023-07-29T05:03:04;18.50;99.90
20700;DHT22;10511;51.232;9.420;2023-07-29T05:05:32;18.50;99.90
20700;DHT22;10511;51.232;9.420;2023-07-29T05:08:00;18.50;99.90
20700;DHT22;10511;51.232;9.420;2023-07-29T05:10:27;18.50;99.90
20700;DHT22;10511;51.232;9.420;2023-07-29T05:12:54;18.50;99.90
20700;DHT22;10511;51.232;9.420;2023-07-29T05:15:21;18.60;99.90
20700;DHT22;10511;51.232;9.420;2023-07-29T05:17:49;18.60;99.90
20700;DHT22;10511;51.232;9.420;2023-07-29T05:20:17;18.50;99.90
20700;DHT22;10511;51.232;9.420;2023-07-29T05:22:44;18.60;99.90
20700;DHT22;10511;51.232;9.420;2023-07-29T05:25:12;18.50;99.90
20700;DHT22;10511;51.232;9.420;2023-07-29T05:27:39;18.50;99.90
20700;DHT22;10511;51.232;9.420;2023-07-29T05:30:08;18.60;99.90
20700;DHT22;10511;51.232;9.420;2023-07-29T05:32:35;18.60;99.90
20700;DHT22;10511;51.232;9.420;2023-07-29T05:35:01;18.60;99.90
20700;DHT22;10511;51.232;9.420;2023-07-29T05:37:29;18.60;99.90
20700;DHT22;10511;51.232;9.420;2023-07-29T05:43:17;18.60;99.90
20700;DHT22;10511;51.232;9.420;2023-07-29T05:45:44;18.60;99.90
20700;DHT22;10511;51.232;9.420;2023-07-29T05:48:10;18.60;99.90
20700;DHT22;10511;51.232;9.420;2023-07-29T05:50:37;18.60;99.90
20700;DHT22;10511;51.232;9.420;2023-07-29T05:53:04;18.70;99.90
20700;DHT22;10511;51.232;9.420;2023-07-29T05:55:32;18.70;99.90
20700;DHT22;10511;51.232;9.420;2023-07-29T05:57:59;18.70;99.90
20700;DHT22;10511;51.232;9.420;2023-07-29T06:00:29;18.80;99.90
20700;DHT22;10511;51.232;9.420;2023-07-29T06:02:57;18.80;99.90
20700;DHT22;10511;51.232;9.420;2023-07-29T06:05:24;18.80;99.90
20700;DHT22;10511;51.232;9.420;2023-07-29T06:07:52;18.80;99.90
20700;DHT22;10511;51.232;9.420;2023-07-29T06:10:19;18.80;99.90
20700;DHT22;10511;51.232;9.420;2023-07-29T06:12:48;18.90;99.90
20700;DHT22;10511;51.232;9.420;2023-07-29T06:15:16;18.80;99.90
20700;DHT22;10511;51.232;9.420;2023-07-29T06:17:50;18.80;99.90
20700;DHT22;10511;51.232;9.420;2023-07-29T06:20:18;18.80;99.90
20700;DHT22;10511;51.232;9.420;2023-07-29T06:22:47;18.80;99.90
20700;DHT22;10511;51.232;9.420;2023-07-29T06:25:15;18.90;99.90
20700;DHT22;10511;51.232;9.420;2023-07-29T06:27:43;19.00;99.90
20700;DHT22;10511;51.232;9.420;2023-07-29T06:30:10;19.00;99.90
20700;DHT22;10511;51.232;9.420;2023-07-29T06:32:38;19.10;99.90
20700;DHT22;10511;51.232;9.420;2023-07-29T06:35:08;19.10;99.90
20700;DHT22;10511;51.232;9.420;2023-07-29T06:37:35;19.10;99.90
20700;DHT22;10511;51.232;9.420;2023-07-29T06:40:03;19.10;99.90
20700;DHT22;10511;51.232;9.420;2023-07-29T06:42:31;19.10;99.90
20700;DHT22;10511;51.232;9.420;2023-07-29T06:44:58;19.10;99.90
20700;DHT22;10511;51.232;9.420;2023-07-29T06:47:24;19.00;99.90
20700;DHT22;10511;51.232;9.420;2023-07-29T06:49:53;19.00;99.90
20700;DHT22;10511;51.232;9.420;2023-07-29T06:52:21;19.10;99.90
20700;DHT22;10511;51.232;9.420;2023-07-29T06:54:48;19.10;99.90
20700;DHT22;10511;51.232;9.420;2023-07-29T06:57:15;19.10;99.90
20700;DHT22;10511;51.232;9.420;2023-07-29T06:59:42;19.10;99.90
20700;DHT22;10511;51.232;9.420;2023-07-29T07:02:09;19.10;99.90
20700;DHT22;10511;51.232;9.420;2023-07-29T07:04:36;19.00;99.90
20700;DHT22;10511;51.232;9.420;2023-07-29T07:07:04;19.00;99.90
20700;DHT22;10511;51.232;9.420;2023-07-29T07:09:32;19.10;99.90
20700;DHT22;10511;51.232;9.420;2023-07-29T07:11:59;19.10;99.90
20700;DHT22;10511;51.232;9.420;2023-07-29T07:14:26;19.10;99.90
20700;DHT22;10511;51.232;9.420;2023-07-29T07:16:53;19.20;99.90
20700;DHT22;10511;51.232;9.420;2023-07-29T07:19:20;19.30;99.90
20700;DHT22;10511;51.232;9.420;2023-07-29T07:21:47;19.30;99.90
20700;DHT22;10511;51.232;9.420;2023-07-29T07:24:14;19.30;99.90
20700;DHT22;10511;51.232;9.420;2023-07-29T07:26:42;19.30;99.90
20700;DHT22;10511;51.232;9.420;2023-07-29T07:29:09;19.30;99.90
20700;DHT22;10511;51.232;9.420;2023-07-29T07:31:36;19.30;99.90
20700;DHT22;10511;51.232;9.420;2023-07-29T07:34:03;19.30;99.90
20700;DHT22;10511;51.232;9.420;2023-07-29T07:36:30;19.30;99.90
20700;DHT22;10511;51.232;9.420;2023-07-29T07:38:57;19.30;99.90
20700;DHT22;10511;51.232;9.420;2023-07-29T07:41:24;19.30;99.90
20700;DHT22;10511;51.232;9.420;2023-07-29T07:43:52;19.30;99.90
20700;DHT22;10511;51.232;9.420;2023-07-29T07:46:19;19.30;99.90
20700;DHT22;10511;51.232;9.420;2023-07-29T07:48:46;19.30;99.90
20700;DHT22;10511;51.232;9.420;2023-07-29T07:51:13;19.40;99.90
20700;DHT22;10511;51.232;9.420;2023-07-29T07:53:40;19.40;99.90
20700;DHT22;10511;51.232;9.420;2023-07-29T07:56:07;19.40;99.90
20700;DHT22;10511;51.232;9.420;2023-07-29T07:58:34;19.40;99.90
20700;DHT22;10511;51.232;9.420;2023-07-29T08:01:03;19.40;99.90
20700;DHT22;10511;51.232;9.420;2023-07-29T08:03:30;19.40;99.90
20700;DHT22;10511;51.232;9.420;2023-07-29T08:05:58;19.40;99.90
20700;DHT22;10511;51.232;9.420;2023-07-29T08:08:25;19.40;99.90
20700;DHT22;10511;51.232;9.420;2023-07-29T08:10:52;19.50;99.90
20700;DHT22;10511;51.232;9.420;2023-07-29T08:13:20;19.50;99.90
20700;DHT22;10511;51.232;9.420;2023-07-29T08:15:47;19.60;99.90
20700;DHT22;10511;51.232;9.420;2023-07-29T08:18:16;19.70;99.90
20700;DHT22;10511;51.232;9.420;2023-07-29T08:20:51;19.70;99.90
20700;DHT22;10511;51.232;9.420;2023-07-29T08:23:19;19.70;99.90
20700;DHT22;10511;51.232;9.420;2023-07-29T08:25:51;19.70;99.90
20700;DHT22;10511;51.232;9.420;2023-07-29T08:28:18;19.70;99.90
20700;DHT22;10511;51.232;9.420;2023-07-29T08:30:45;19.70;99.90
20700;DHT22;10511;51.232;9.420;2023-07-29T08:33:12;19.70;99.90
20700;DHT22;10511;51.232;9.420;2023-07-29T08:36:08;19.80;99.90
20700;DHT22;10511;51.232;9.420;2023-07-29T08:38:41;19.80;99.90
20700;DHT22;10511;51.232;9.420;2023-07-29T08:41:13;19.80;99.90
20700;DHT22;10511;51.232;9.420;2023-07-29T08:43:52;19.80;99.90
20700;DHT22;10511;51.232;9.420;2023-07-29T08:46:23;19.80;99.90
20700;DHT22;10511;51.232;9.420;2023-07-29T08:48:51;19.80;99.90
20700;DHT22;10511;51.232;9.420;2023-07-29T08:51:19;19.80;99.90
20700;DHT22;10511;51.232;9.420;2023-07-29T08:53:48;19.80;99.90
20700;DHT22;10511;51.232;9.420;2023-07-29T08:56:15;19.70;99.90
20700;DHT22;10511;51.232;9.420;2023-07-29T08:58:43;19.70;99.90
20700;DHT22;10511;51.232;9.420;2023-07-29T09:01:10;19.80;99.90
20700;DHT22;10511;51.232;9.420;2023-07-29T09:03:37;19.90;99.90
20700;DHT22;10511;51.232;9.420;2023-07-29T09:06:05;20.00;99.90
20700;DHT22;10511;51.232;9.420;2023-07-29T09:08:34;20.00;99.90
20700;DHT22;10511;51.232;9.420;2023-07-29T09:11:02;20.10;99.90
20700;DHT22;10511;51.232;9.420;2023-07-29T09:13:29;20.20;99.90
20700;DHT22;10511;51.232;9.420;2023-07-29T09:15:57;20.30;99.90
20700;DHT22;10511;51.232;9.420;2023-07-29T09:18:26;20.30;99.90
20700;DHT22;10511;51.232;9.420;2023-07-29T09:20:59;20.50;99.90
20700;DHT22;10511;51.232;9.420;2023-07-29T09:23:26;20.60;99.90
20700;DHT22;10511;51.232;9.420;2023-07-29T09:26:02;20.70;99.90
20700;DHT22;10511;51.232;9.420;2023-07-29T09:28:33;20.70;99.90
20700;DHT22;10511;51.232;9.420;2023-07-29T09:31:00;20.70;99.90
20700;DHT22;10511;51.232;9.420;2023-07-29T09:33:28;20.90;99.90
20700;DHT22;10511;51.232;9.420;2023-07-29T09:35:54;21.00;99.90
20700;DHT22;10511;51.232;9.420;2023-07-29T09:38:26;21.00;99.90
20700;DHT22;10511;51.232;9.420;2023-07-29T09:40:55;21.00;99.90
20700;DHT22;10511;51.232;9.420;2023-07-29T09:43:29;21.00;99.90
20700;DHT22;10511;51.232;9.420;2023-07-29T09:45:59;21.00;99.90
20700;DHT22;10511;51.232;9.420;2023-07-29T09:48:27;21.00;99.90
20700;DHT22;10511;51.232;9.420;2023-07-29T09:50:54;21.00;99.90
20700;DHT22;10511;51.232;9.420;2023-07-29T09:53:21;21.10;99.90
20700;DHT22;10511;51.232;9.420;2023-07-29T09:55:49;21.10;99.90
20700;DHT22;10511;51.232;9.420;2023-07-29T09:58:19;21.20;99.90
20700;DHT22;10511;51.232;9.420;2023-07-29T10:00:48;21.30;99.90
20700;DHT22;10511;51.232;9.420;2023-07-29T10:03:15;21.30;99.90
20700;DHT22;10511;51.232;9.420;2023-07-29T10:05:43;21.40;99.90
20700;DHT22;10511;51.232;9.420;2023-07-29T10:08:10;21.40;99.90
20700;DHT22;10511;51.232;9.420;2023-07-29T10:10:38;21.50;99.90
20700;DHT22;10511;51.232;9.420;2023-07-29T10:13:06;21.60;99.90
20700;DHT22;10511;51.232;9.420;2023-07-29T10:15:33;21.70;99.90
20700;DHT22;10511;51.232;9.420;2023-07-29T10:18:03;21.70;99.90
20700;DHT22;10511;51.232;9.420;2023-07-29T10:20:30;21.80;99.90
20700;DHT22;10511;51.232;9.420;2023-07-29T10:23:00;21.80;99.90
20700;DHT22;10511;51.232;9.420;2023-07-29T10:25:35;21.80;99.90
20700;DHT22;10511;51.232;9.420;2023-07-29T10:28:05;21.80;99.90
20700;DHT22;10511;51.232;9.420;2023-07-29T10:30:32;21.70;99.90
20700;DHT22;10511;51.232;9.420;2023-07-29T10:33:04;21.70;99.90
20700;DHT22;10511;51.232;9.420;2023-07-29T10:35:32;21.70;99.90
20700;DHT22;10511;51.232;9.420;2023-07-29T10:38:00;21.60;99.90
20700;DHT22;10511;51.232;9.420;2023-07-29T10:40:43;21.70;99.90
20700;DHT22;10511;51.232;9.420;2023-07-29T10:43:12;21.80;99.90
20700;DHT22;10511;51.232;9.420;2023-07-29T10:45:41;22.00;99.90
20700;DHT22;10511;51.232;9.420;2023-07-29T10:48:12;22.00;99.90
20700;DHT22;10511;51.232;9.420;2023-07-29T10:50:39;22.00;99.90
20700;DHT22;10511;51.232;9.420;2023-07-29T10:53:06;22.00;99.90
20700;DHT22;10511;51.232;9.420;2023-07-29T10:55:34;22.30;99.90
20700;DHT22;10511;51.232;9.420;2023-07-29T10:58:12;22.40;99.90
20700;DHT22;10511;51.232;9.420;2023-07-29T11:00:41;22.60;99.90
20700;DHT22;10511;51.232;9.420;2023-07-29T11:03:11;22.70;99.90
20700;DHT22;10511;51.232;9.420;2023-07-29T11:05:45;23.10;99.90
20700;DHT22;10511;51.232;9.420;2023-07-29T11:08:21;23.10;99.90
20700;DHT22;10511;51.232;9.420;2023-07-29T11:10:58;23.10;99.90
20700;DHT22;10511;51.232;9.420;2023-07-29T11:13:27;23.00;99.90
20700;DHT22;10511;51.232;9.420;2023-07-29T11:15:55;23.10;99.90
20700;DHT22;10511;51.232;9.420;2023-07-29T11:18:27;23.20;99.90
20700;DHT22;10511;51.232;9.420;2023-07-29T11:20:54;23.40;99.90
20700;DHT22;10511;51.232;9.420;2023-07-29T11:23:27;23.40;99.90
20700;DHT22;10511;51.232;9.420;2023-07-29T11:25:55;23.40;99.90
20700;DHT22;10511;51.232;9.420;2023-07-29T11:28:22;23.20;99.90
20700;DHT22;10511;51.232;9.420;2023-07-29T11:30:50;23.10;99.90
20700;DHT22;10511;51.232;9.420;2023-07-29T11:33:19;23.00;99.90
20700;DHT22;10511;51.232;9.420;2023-07-29T11:35:48;22.80;99.90
20700;DHT22;10511;51.232;9.420;2023-07-29T11:38:16;22.90;99.90
20700;DHT22;10511;51.232;9.420;2023-07-29T11:40:43;22.90;99.90
20700;DHT22;10511;51.232;9.420;2023-07-29T11:43:17;22.90;99.90
20700;DHT22;10511;51.232;9.420;2023-07-29T11:45:45;22.80;99.90
20700;DHT22;10511;51.232;9.420;2023-07-29T11:48:12;22.70;99.90
20700;DHT22;10511;51.232;9.420;2023-07-29T11:50:39;22.70;99.90
20700;DHT22;10511;51.232;9.420;2023-07-29T11:53:08;22.60;99.90
20700;DHT22;10511;51.232;9.420;2023-07-29T11:55:35;22.50;99.90
20700;DHT22;10511;51.232;9.420;2023-07-29T11:58:02;22.60;99.90
20700;DHT22;10511;51.232;9.420;2023-07-29T12:00:29;22.60;99.90
20700;DHT22;10511;51.232;9.420;2023-07-29T12:02:58;22.60;99.90
20700;DHT22;10511;51.232;9.420;2023-07-29T12:05:26;22.80;99.90
20700;DHT22;10511;51.232;9.420;2023-07-29T12:07:53;22.70;99.90
20700;DHT22;10511;51.232;9.420;2023-07-29T12:10:22;22.70;99.90
20700;DHT22;10511;51.232;9.420;2023-07-29T12:12:50;22.80;99.90
20700;DHT22;10511;51.232;9.420;2023-07-29T12:15:24;22.70;99.90
20700;DHT22;10511;51.232;9.420;2023-07-29T12:17:55;22.70;99.90
20700;DHT22;10511;51.232;9.420;2023-07-29T12:20:23;22.70;99.90
20700;DHT22;10511;51.232;9.420;2023-07-29T12:22:54;22.70;99.90
20700;DHT22;10511;51.232;9.420;2023-07-29T12:25:23;22.60;99.90
20700;DHT22;10511;51.232;9.420;2023-07-29T12:27:51;22.70;99.90
20700;DHT22;10511;51.232;9.420;2023-07-29T12:30:20;22.70;99.90
20700;DHT22;10511;51.232;9.420;2023-07-29T12:32:48;22.70;99.90
20700;DHT22;10511;51.232;9.420;2023-07-29T12:35:15;22.60;99.90
20700;DHT22;10511;51.232;9.420;2023-07-29T12:37:42;22.50;99.90
20700;DHT22;10511;51.232;9.420;2023-07-29T12:40:23;22.40;99.90
20700;DHT22;10511;51.232;9.420;2023-07-29T12:42:50;22.30;99.90
20700;DHT22;10511;51.232;9.420;2023-07-29T12:45:18;22.40;99.90
20700;DHT22;10511;51.232;9.420;2023-07-29T12:47:45;22.60;99.90
20700;DHT22;10511;51.232;9.420;2023-07-29T12:50:12;22.70;99.90
20700;DHT22;10511;51.232;9.420;2023-07-29T12:52:39;22.70;99.90
20700;DHT22;10511;51.232;9.420;2023-07-29T12:55:06;22.70;99.90
20700;DHT22;10511;51.232;9.420;2023-07-29T12:57:40;22.70;99.90
20700;DHT22;10511;51.232;9.420;2023-07-29T13:00:09;22.90;99.90
20700;DHT22;10511;51.232;9.420;2023-07-29T13:02:36;22.90;99.90
20700;DHT22;10511;51.232;9.420;2023-07-29T13:05:03;22.90;99.90
20700;DHT22;10511;51.232;9.420;2023-07-29T13:07:30;22.80;99.90
20700;DHT22;10511;51.232;9.420;2023-07-29T13:09:57;22.70;99.90
20700;DHT22;10511;51.232;9.420;2023-07-29T13:12:24;22.50;99.90
20700;DHT22;10511;51.232;9.420;2023-07-29T13:14:53;22.40;99.90
20700;DHT22;10511;51.232;9.420;2023-07-29T13:17:21;22.30;99.90
20700;DHT22;10511;51.232;9.420;2023-07-29T13:19:53;22.40;99.90
20700;DHT22;10511;51.232;9.420;2023-07-29T13:22:20;22.40;99.90
20700;DHT22;10511;51.232;9.420;2023-07-29T13:24:47;22.70;99.90
20700;DHT22;10511;51.232;9.420;2023-07-29T13:27:14;23.00;99.90
20700;DHT22;10511;51.232;9.420;2023-07-29T13:29:41;23.10;99.90
20700;DHT22;10511;51.232;9.420;2023-07-29T13:32:10;23.30;99.90
20700;DHT22;10511;51.232;9.420;2023-07-29T13:34:37;23.60;99.90
20700;DHT22;10511;51.232;9.420;2023-07-29T13:37:05;23.80;99.90
20700;DHT22;10511;51.232;9.420;2023-07-29T13:39:32;24.10;99.90
20700;DHT22;10511;51.232;9.420;2023-07-29T13:42:00;24.10;99.90
20700;DHT22;10511;51.232;9.420;2023-07-29T13:44:28;24.10;99.90
20700;DHT22;10511;51.232;9.420;2023-07-29T13:46:55;23.80;99.90
20700;DHT22;10511;51.232;9.420;2023-07-29T13:49:23;23.40;99.90
20700;DHT22;10511;51.232;9.420;2023-07-29T13:51:50;23.40;99.90
20700;DHT22;10511;51.232;9.420;2023-07-29T13:54:17;23.50;99.90
20700;DHT22;10511;51.232;9.420;2023-07-29T13:56:45;23.50;99.90
20700;DHT22;10511;51.232;9.420;2023-07-29T13:59:12;23.40;99.90
20700;DHT22;10511;51.232;9.420;2023-07-29T14:01:39;23.30;99.90
20700;DHT22;10511;51.232;9.420;2023-07-29T14:04:06;23.30;99.90
20700;DHT22;10511;51.232;9.420;2023-07-29T14:06:34;23.20;99.90
20700;DHT22;10511;51.232;9.420;2023-07-29T14:09:01;23.10;99.90
20700;DHT22;10511;51.232;9.420;2023-07-29T14:11:28;23.00;99.90
20700;DHT22;10511;51.232;9.420;2023-07-29T14:13:55;23.00;99.90
20700;DHT22;10511;51.232;9.420;2023-07-29T14:16:22;22.90;99.90
20700;DHT22;10511;51.232;9.420;2023-07-29T14:18:49;22.80;99.90
20700;DHT22;10511;51.232;9.420;2023-07-29T14:21:16;22.90;99.90
20700;DHT22;10511;51.232;9.420;2023-07-29T14:23:45;22.90;99.90
20700;DHT22;10511;51.232;9.420;2023-07-29T14:26:12;22.90;99.90
20700;DHT22;10511;51.232;9.420;2023-07-29T14:28:39;22.80;99.90
20700;DHT22;10511;51.232;9.420;2023-07-29T14:31:06;22.70;99.90
20700;DHT22;10511;51.232;9.420;2023-07-29T14:33:33;22.70;99.90
20700;DHT22;10511;51.232;9.420;2023-07-29T14:36:00;22.60;99.90
20700;DHT22;10511;51.232;9.420;2023-07-29T14:38:29;22.60;99.90
20700;DHT22;10511;51.232;9.420;2023-07-29T14:40:57;22.50;99.90
20700;DHT22;10511;51.232;9.420;2023-07-29T14:43:24;22.40;99.90
20700;DHT22;10511;51.232;9.420;2023-07-29T14:45:51;22.50;99.90
20700;DHT22;10511;51.232;9.420;2023-07-29T14:48:18;22.60;99.90
20700;DHT22;10511;51.232;9.420;2023-07-29T14:50:45;22.60;99.90
20700;DHT22;10511;51.232;9.420;2023-07-29T14:53:12;22.60;99.90
20700;DHT22;10511;51.232;9.420;2023-07-29T14:55:39;22.70;99.90
20700;DHT22;10511;51.232;9.420;2023-07-29T14:58:07;22.70;99.90
20700;DHT22;10511;51.232;9.420;2023-07-29T15:00:34;22.80;99.90
20700;DHT22;10511;51.232;9.420;2023-07-29T15:03:01;23.10;99.90
20700;DHT22;10511;51.232;9.420;2023-07-29T15:05:28;23.10;99.90
20700;DHT22;10511;51.232;9.420;2023-07-29T15:07:55;23.10;99.90
20700;DHT22;10511;51.232;9.420;2023-07-29T15:10:22;23.20;99.90
20700;DHT22;10511;51.232;9.420;2023-07-29T15:12:49;23.40;99.90
20700;DHT22;10511;51.232;9.420;2023-07-29T15:15:18;23.60;99.90
20700;DHT22;10511;51.232;9.420;2023-07-29T15:17:45;24.00;99.90
20700;DHT22;10511;51.232;9.420;2023-07-29T15:20:12;24.00;99.90
20700;DHT22;10511;51.232;9.420;2023-07-29T15:22:39;24.10;99.90
20700;DHT22;10511;51.232;9.420;2023-07-29T15:25:08;24.00;99.90
20700;DHT22;10511;51.232;9.420;2023-07-29T15:27:36;24.00;99.90
20700;DHT22;10511;51.232;9.420;2023-07-29T15:30:06;24.10;99.90
20700;DHT22;10511;51.232;9.420;2023-07-29T15:32:35;24.20;99.90
20700;DHT22;10511;51.232;9.420;2023-07-29T15:35:02;24.20;99.90
20700;DHT22;10511;51.232;9.420;2023-07-29T15:37:29;24.20;99.90
20700;DHT22;10511;51.232;9.420;2023-07-29T15:39:55;24.30;99.90